Time;durP1;ratioP1;P1;durP2;ratioP2;P2;SDS_P1;SDS_P2;PMS_P1;PMS_P2;Temp;Humidity;BMP_temperature;BMP_pressure;BME280_temperature;BME280_humidity;BME280_pressure;Samples;Min_cycle;Max_cycle;Signal;HPM_P1;HPM_P2
2023/07/07 00:00:33;;;;;;;30.87;17.70;;;;;;;;;;5027146;28;20025;-66
2023/07/07 00:02:59;;;;;;;37.50;19.63;;;;;;;;;;5030181;28;20417;-65
2023/07/07 00:05:24;;;;;;;31.80;17.87;;;;;;;;;;5029401;28;20100;-66
2023/07/07 00:07:50;;;;;;;31.73;17.57;;;;;;;;;;5032220;28;20041;-65
2023/07/07 00:10:16;;;;;;;33.70;19.87;;;;;;;;;;5031009;28;20025;-65
2023/07/07 00:12:41;;;;;;;31.97;17.70;;;;;;;;;;5025420;28;20466;-67
2023/07/07 00:15:07;;;;;;;36.13;19.60;;;;;;;;;;5027603;28;20025;-65
2023/07/07 00:17:32;;;;;;;30.83;18.27;;;;;;;;;;5050994;28;20100;-66
2023/07/07 00:20:02;;;;;;;33.53;18.27;;;;;;;;;;5041255;28;20029;-66
2023/07/07 00:22:31;;;;;;;30.97;18.90;;;;;;;;;;5028151;28;20029;-65
2023/07/07 00:24:56;;;;;;;40.23;21.80;;;;;;;;;;5032587;28;20029;-66
2023/07/07 00:27:21;;;;;;;42.30;21.40;;;;;;;;;;5035428;28;20020;-65
2023/07/07 00:29:47;;;;;;;37.77;20.27;;;;;;;;;;5036943;28;20029;-65
2023/07/07 00:32:12;;;;;;;35.90;19.90;;;;;;;;;;5024902;28;20022;-66
2023/07/07 00:34:37;;;;;;;30.20;19.00;;;;;;;;;;5029678;28;20093;-66
2023/07/07 00:37:02;;;;;;;34.37;20.13;;;;;;;;;;5035436;28;20018;-66
2023/07/07 00:39:28;;;;;;;36.00;19.93;;;;;;;;;;5045057;28;20071;-66
2023/07/07 00:41:53;;;;;;;41.07;20.33;;;;;;;;;;5036717;28;20036;-66
2023/07/07 00:44:18;;;;;;;41.53;21.30;;;;;;;;;;5037802;28;20020;-66
2023/07/07 00:46:43;;;;;;;32.47;18.77;;;;;;;;;;5018513;28;20041;-67
2023/07/07 00:49:13;;;;;;;28.47;16.73;;;;;;;;;;5010263;28;20425;-67
2023/07/07 00:51:45;;;;;;;38.37;20.20;;;;;;;;;;5018922;28;20036;-66
2023/07/07 00:54:15;;;;;;;39.03;20.90;;;;;;;;;;5029915;28;20381;-67
2023/07/07 00:56:46;;;;;;;35.90;20.27;;;;;;;;;;5033961;28;20088;-67
2023/07/07 00:59:17;;;;;;;43.43;22.47;;;;;;;;;;5030473;28;20518;-67
2023/07/07 01:02:01;;;;;;;38.50;19.85;;;;;;;;;;5022149;28;20064;-67
2023/07/07 01:04:27;;;;;;;39.17;20.23;;;;;;;;;;5026132;28;20057;-67
2023/07/07 01:06:56;;;;;;;41.40;21.77;;;;;;;;;;5032907;28;20013;-67
2023/07/07 01:09:21;;;;;;;34.50;20.33;;;;;;;;;;5032623;28;20025;-67
2023/07/07 01:11:47;;;;;;;40.20;21.70;;;;;;;;;;5035454;28;20099;-67
2023/07/07 01:14:17;;;;;;;43.27;22.80;;;;;;;;;;5035106;28;20013;-67
2023/07/07 01:16:51;;;;;;;52.33;26.58;;;;;;;;;;5043101;28;20017;-67
2023/07/07 01:19:35;;;;;;;43.23;24.07;;;;;;;;;;5027408;28;20104;-67
2023/07/07 01:22:04;;;;;;;48.83;23.00;;;;;;;;;;5031009;28;20032;-67
2023/07/07 01:24:48;;;;;;;49.00;24.00;;;;;;;;;;5025805;28;20021;-67
2023/07/07 01:27:13;;;;;;;49.83;24.53;;;;;;;;;;5034564;28;20017;-67
2023/07/07 01:29:44;;;;;;;39.50;22.53;;;;;;;;;;5031062;28;20032;-67
2023/07/07 01:32:12;;;;;;;50.85;24.10;;;;;;;;;;5034394;28;20484;-67
2023/07/07 01:34:37;;;;;;;41.00;22.40;;;;;;;;;;5037909;28;20021;-67
2023/07/07 01:37:03;;;;;;;40.90;21.63;;;;;;;;;;5045566;28;20405;-67
2023/07/07 01:39:28;;;;;;;48.43;24.03;;;;;;;;;;5035217;28;20013;-67
2023/07/07 01:41:58;;;;;;;41.37;22.80;;;;;;;;;;5035333;28;20025;-67
2023/07/07 01:44:29;;;;;;;44.13;22.40;;;;;;;;;;5035099;28;20521;-67
2023/07/07 01:46:57;;;;;;;47.80;23.73;;;;;;;;;;5034996;28;20041;-67
2023/07/07 01:49:30;;;;;;;51.57;25.40;;;;;;;;;;5031132;28;20029;-67
2023/07/07 01:52:14;;;;;;;55.83;26.30;;;;;;;;;;5047598;28;20055;-67
2023/07/07 01:54:43;;;;;;;57.10;28.23;;;;;;;;;;5038430;28;20489;-67
2023/07/07 01:57:09;;;;;;;55.27;26.73;;;;;;;;;;5034882;28;20052;-67
2023/07/07 01:59:35;;;;;;;57.63;28.10;;;;;;;;;;5039361;28;20095;-67
2023/07/07 02:02:00;;;;;;;49.43;25.53;;;;;;;;;;5053530;28;20092;-67
2023/07/07 02:04:25;;;;;;;51.23;24.03;;;;;;;;;;5034393;28;20056;-68
2023/07/07 02:06:51;;;;;;;47.63;23.40;;;;;;;;;;5031736;28;20507;-67
2023/07/07 02:09:17;;;;;;;48.90;22.70;;;;;;;;;;5037955;28;20022;-67
2023/07/07 02:11:42;;;;;;;44.30;23.43;;;;;;;;;;5033408;28;20500;-67
2023/07/07 02:14:07;;;;;;;56.30;27.40;;;;;;;;;;5031025;28;20038;-66
2023/07/07 02:16:33;;;;;;;54.80;28.27;;;;;;;;;;5037916;28;20071;-67
2023/07/07 02:18:58;;;;;;;61.13;27.10;;;;;;;;;;5022793;28;20493;-67
2023/07/07 02:21:23;;;;;;;63.60;28.07;;;;;;;;;;5031351;28;20044;-67
2023/07/07 02:23:49;;;;;;;52.90;26.63;;;;;;;;;;5030564;28;20220;-67
2023/07/07 02:26:17;;;;;;;50.67;24.40;;;;;;;;;;5029341;28;20359;-66
2023/07/07 02:28:43;;;;;;;48.87;24.57;;;;;;;;;;5031793;28;20048;-66
2023/07/07 02:31:10;;;;;;;49.83;25.10;;;;;;;;;;5028063;28;20044;-65
2023/07/07 02:33:35;;;;;;;50.23;24.43;;;;;;;;;;5032809;28;20075;-66
2023/07/07 02:36:02;;;;;;;54.43;26.43;;;;;;;;;;5031949;28;20029;-66
2023/07/07 02:38:28;;;;;;;48.30;23.07;;;;;;;;;;5025318;28;20025;-65
2023/07/07 02:40:53;;;;;;;54.80;23.73;;;;;;;;;;5029655;28;20124;-66
2023/07/07 02:43:18;;;;;;;51.97;24.00;;;;;;;;;;5029932;28;20100;-66
2023/07/07 02:45:44;;;;;;;54.23;26.33;;;;;;;;;;5028042;28;20463;-66
2023/07/07 02:48:09;;;;;;;64.07;29.20;;;;;;;;;;5028391;28;20458;-66
2023/07/07 02:50:34;;;;;;;66.60;31.07;;;;;;;;;;5042120;28;20673;-66
2023/07/07 02:52:59;;;;;;;68.63;31.27;;;;;;;;;;5052382;28;20041;-66
2023/07/07 02:55:25;;;;;;;71.83;31.23;;;;;;;;;;5057362;28;20021;-65
2023/07/07 02:57:50;;;;;;;68.23;29.50;;;;;;;;;;5046672;28;20029;-63
2023/07/07 03:00:15;;;;;;;57.07;27.47;;;;;;;;;;5028594;28;20035;-66
2023/07/07 03:02:40;;;;;;;59.53;28.47;;;;;;;;;;5036962;28;20136;-66
2023/07/07 03:05:06;;;;;;;57.50;26.53;;;;;;;;;;5030528;28;20076;-66
2023/07/07 03:07:31;;;;;;;53.57;26.53;;;;;;;;;;5030932;28;20473;-66
2023/07/07 03:09:56;;;;;;;58.47;28.33;;;;;;;;;;5026774;28;20030;-66
2023/07/07 03:12:22;;;;;;;60.80;29.13;;;;;;;;;;5030812;28;20033;-66
2023/07/07 03:14:48;;;;;;;63.57;28.63;;;;;;;;;;5048172;28;20108;-66
2023/07/07 03:17:16;;;;;;;60.47;28.20;;;;;;;;;;5027355;28;20029;-66
2023/07/07 03:19:42;;;;;;;61.83;31.10;;;;;;;;;;5023856;28;20484;-66
2023/07/07 03:22:07;;;;;;;65.93;30.03;;;;;;;;;;5026328;28;20030;-66
2023/07/07 03:24:32;;;;;;;72.70;31.43;;;;;;;;;;5031675;28;20112;-66
2023/07/07 03:26:57;;;;;;;71.50;34.00;;;;;;;;;;5031016;28;20060;-66
2023/07/07 03:29:22;;;;;;;75.70;34.83;;;;;;;;;;5028215;28;20032;-67
2023/07/07 03:31:48;;;;;;;75.30;34.87;;;;;;;;;;5030498;28;20053;-67
2023/07/07 03:34:13;;;;;;;70.50;32.37;;;;;;;;;;5028444;28;20030;-67
2023/07/07 03:36:38;;;;;;;65.20;32.17;;;;;;;;;;5025372;28;20026;-66
2023/07/07 03:39:04;;;;;;;69.40;31.90;;;;;;;;;;5031239;28;20385;-67
2023/07/07 03:41:29;;;;;;;61.97;30.47;;;;;;;;;;5030317;28;20032;-66
2023/07/07 03:43:55;;;;;;;54.37;26.73;;;;;;;;;;5028953;28;20036;-67
2023/07/07 03:46:21;;;;;;;50.33;25.93;;;;;;;;;;5024137;28;20029;-67
2023/07/07 03:48:47;;;;;;;55.97;26.83;;;;;;;;;;5031121;28;20025;-66
2023/07/07 03:51:13;;;;;;;47.10;25.13;;;;;;;;;;5030077;28;20422;-66
2023/07/07 03:53:39;;;;;;;49.07;23.70;;;;;;;;;;5035155;28;20109;-66
2023/07/07 03:56:05;;;;;;;45.57;26.00;;;;;;;;;;5031972;28;20067;-66
2023/07/07 03:58:31;;;;;;;45.77;24.97;;;;;;;;;;5030855;28;20033;-66
2023/07/07 04:01:00;;;;;;;40.53;21.93;;;;;;;;;;5019763;28;20030;-66
2023/07/07 04:03:26;;;;;;;42.43;20.70;;;;;;;;;;5023062;28;20324;-66
2023/07/07 04:05:53;;;;;;;36.67;21.17;;;;;;;;;;5014427;28;20046;-67
2023/07/07 04:08:22;;;;;;;32.50;19.47;;;;;;;;;;5019401;28;20101;-66
2023/07/07 04:10:57;;;;;;;41.73;19.33;;;;;;;;;;5023340;28;20037;-65
2023/07/07 04:13:22;;;;;;;33.63;17.10;;;;;;;;;;5029630;28;20025;-65
2023/07/07 04:15:56;;;;;;;30.37;15.00;;;;;;;;;;5021192;28;20039;-64
2023/07/07 04:18:21;;;;;;;20.30;12.00;;;;;;;;;;5019776;28;20022;-64
2023/07/07 04:20:47;;;;;;;25.73;12.03;;;;;;;;;;5021148;28;20052;-63
2023/07/07 04:23:12;;;;;;;21.40;11.70;;;;;;;;;;5027594;28;20022;-63
2023/07/07 04:25:37;;;;;;;17.43;10.67;;;;;;;;;;5013483;28;20054;-64
2023/07/07 04:28:03;;;;;;;23.00;9.60;;;;;;;;;;5018816;28;20389;-63
2023/07/07 04:30:28;;;;;;;15.00;9.20;;;;;;;;;;5014987;28;20097;-64
2023/07/07 04:32:54;;;;;;;15.97;8.13;;;;;;;;;;5028724;28;20147;-64
2023/07/07 04:35:19;;;;;;;21.03;9.00;;;;;;;;;;5026643;28;20089;-64
2023/07/07 04:37:44;;;;;;;23.85;9.57;;;;;;;;;;5031897;28;20040;-64
2023/07/07 04:40:09;;;;;;;19.13;8.75;;;;;;;;;;5015219;28;21775;-65
2023/07/07 04:42:35;;;;;;;19.52;9.90;;;;;;;;;;5019486;28;20048;-64
2023/07/07 04:45:00;;;;;;;18.85;9.27;;;;;;;;;;5012960;28;20050;-62
2023/07/07 04:47:25;;;;;;;17.92;9.20;;;;;;;;;;5015342;28;20494;-64
2023/07/07 04:49:51;;;;;;;17.42;9.55;;;;;;;;;;5025107;28;20025;-64
2023/07/07 04:52:17;;;;;;;18.58;10.18;;;;;;;;;;5026154;28;20213;-64
2023/07/07 04:54:42;;;;;;;21.65;10.75;;;;;;;;;;5030114;28;20056;-64
2023/07/07 04:57:07;;;;;;;16.63;11.65;;;;;;;;;;5028086;28;20449;-64
2023/07/07 04:59:32;;;;;;;19.65;11.68;;;;;;;;;;5016779;28;20025;-64
2023/07/07 05:01:58;;;;;;;19.77;12.73;;;;;;;;;;5021363;28;20053;-64
2023/07/07 05:04:23;;;;;;;20.63;12.98;;;;;;;;;;5015118;28;20021;-64
2023/07/07 05:06:48;;;;;;;19.45;12.18;;;;;;;;;;5027801;28;20103;-64
2023/07/07 05:09:15;;;;;;;17.75;11.43;;;;;;;;;;5028823;28;20385;-63
2023/07/07 05:11:41;;;;;;;21.98;11.25;;;;;;;;;;5031361;28;20465;-63
2023/07/07 05:14:06;;;;;;;26.90;12.10;;;;;;;;;;5030180;28;20021;-63
2023/07/07 05:16:36;;;;;;;18.98;11.63;;;;;;;;;;5024799;28;20468;-63
2023/07/07 05:19:01;;;;;;;19.33;10.73;;;;;;;;;;5027458;28;20557;-59
2023/07/07 05:21:26;;;;;;;22.45;10.52;;;;;;;;;;5022224;28;20108;-59
2023/07/07 05:23:52;;;;;;;17.30;10.48;;;;;;;;;;5028283;28;20028;-60
2023/07/07 05:26:18;;;;;;;20.08;10.75;;;;;;;;;;5030840;28;20032;-60
2023/07/07 05:28:43;;;;;;;18.95;10.05;;;;;;;;;;5035708;28;20437;-59
2023/07/07 05:31:08;;;;;;;17.73;9.88;;;;;;;;;;5031057;28;20124;-59
2023/07/07 05:33:34;;;;;;;17.05;9.68;;;;;;;;;;5050432;28;20019;-59
2023/07/07 05:36:00;;;;;;;17.05;9.80;;;;;;;;;;5041136;28;20112;-60
2023/07/07 05:38:26;;;;;;;15.88;9.65;;;;;;;;;;5015980;28;20030;-59
2023/07/07 05:40:52;;;;;;;14.93;9.45;;;;;;;;;;5014974;28;20026;-59
2023/07/07 05:43:19;;;;;;;15.10;9.30;;;;;;;;;;5014002;28;20149;-60
2023/07/07 05:45:44;;;;;;;13.57;9.50;;;;;;;;;;5013784;28;20018;-59
2023/07/07 05:48:10;;;;;;;14.95;9.27;;;;;;;;;;5014063;28;20030;-60
2023/07/07 05:50:36;;;;;;;12.43;8.75;;;;;;;;;;5014176;28;20045;-59
2023/07/07 05:53:02;;;;;;;15.98;8.52;;;;;;;;;;5029933;28;20029;-60
2023/07/07 05:55:32;;;;;;;12.43;8.60;;;;;;;;;;5033806;28;20075;-59
2023/07/07 05:57:57;;;;;;;16.50;8.40;;;;;;;;;;5035317;28;20025;-59
2023/07/07 06:00:24;;;;;;;13.00;8.00;;;;;;;;;;5035487;28;20056;-60
2023/07/07 06:02:49;;;;;;;11.02;7.93;;;;;;;;;;5035217;28;20532;-59
2023/07/07 06:05:15;;;;;;;9.93;7.85;;;;;;;;;;5015831;28;20026;-59
2023/07/07 06:07:40;;;;;;;11.07;7.55;;;;;;;;;;5026347;28;20017;-60
2023/07/07 06:10:05;;;;;;;13.93;7.82;;;;;;;;;;5035195;28;20013;-59
2023/07/07 06:12:34;;;;;;;11.63;7.10;;;;;;;;;;5035063;28;20489;-60
2023/07/07 06:15:00;;;;;;;10.95;7.63;;;;;;;;;;5034959;28;20048;-59
2023/07/07 06:17:25;;;;;;;13.60;7.22;;;;;;;;;;5034673;28;20060;-59
2023/07/07 06:19:50;;;;;;;10.18;6.75;;;;;;;;;;5035062;28;20438;-59
2023/07/07 06:22:15;;;;;;;11.88;6.90;;;;;;;;;;5034721;28;20334;-59
2023/07/07 06:24:41;;;;;;;11.43;6.70;;;;;;;;;;5035101;28;20493;-59
2023/07/07 06:27:06;;;;;;;10.77;6.63;;;;;;;;;;5034902;28;20944;-59
2023/07/07 06:29:35;;;;;;;12.45;6.63;;;;;;;;;;5034267;28;20029;-59
2023/07/07 06:32:00;;;;;;;9.70;6.20;;;;;;;;;;5034847;28;20378;-58
2023/07/07 06:34:25;;;;;;;12.70;5.82;;;;;;;;;;5034390;28;20062;-58
2023/07/07 06:36:51;;;;;;;9.00;5.78;;;;;;;;;;5034410;28;20017;-59
2023/07/07 06:39:17;;;;;;;9.95;5.50;;;;;;;;;;5034601;28;20481;-59
2023/07/07 06:41:42;;;;;;;12.50;5.90;;;;;;;;;;5034476;28;20025;-59
2023/07/07 06:44:07;;;;;;;13.27;5.97;;;;;;;;;;5034441;28;20021;-59
2023/07/07 06:46:32;;;;;;;9.63;5.28;;;;;;;;;;5034211;28;20404;-59
2023/07/07 06:48:59;;;;;;;8.90;5.05;;;;;;;;;;5034188;28;20021;-59
2023/07/07 06:51:24;;;;;;;10.10;4.63;;;;;;;;;;5033673;28;20025;-58
2023/07/07 06:53:49;;;;;;;8.68;4.38;;;;;;;;;;5034172;28;20036;-59
2023/07/07 06:56:15;;;;;;;9.10;4.68;;;;;;;;;;5034033;28;20113;-60
2023/07/07 06:58:40;;;;;;;6.70;4.18;;;;;;;;;;5033969;28;20025;-59
2023/07/07 07:01:07;;;;;;;18.23;4.50;;;;;;;;;;5033579;28;20021;-59
2023/07/07 07:03:32;;;;;;;7.55;4.45;;;;;;;;;;5033840;28;20406;-59
2023/07/07 07:05:57;;;;;;;10.25;4.10;;;;;;;;;;5034235;28;20022;-59
2023/07/07 07:08:22;;;;;;;11.27;4.13;;;;;;;;;;5034027;28;20022;-59
2023/07/07 07:10:47;;;;;;;8.18;3.60;;;;;;;;;;5034284;28;20010;-59
2023/07/07 07:13:13;;;;;;;9.75;4.35;;;;;;;;;;5032699;28;20390;-58
2023/07/07 07:15:38;;;;;;;6.03;3.40;;;;;;;;;;5034034;28;20525;-59
2023/07/07 07:18:03;;;;;;;8.00;3.55;;;;;;;;;;5033617;28;20014;-59
2023/07/07 07:20:28;;;;;;;7.10;3.60;;;;;;;;;;5032692;28;20469;-58
2023/07/07 07:22:54;;;;;;;6.32;3.80;;;;;;;;;;5033775;28;20036;-59
2023/07/07 07:25:19;;;;;;;7.20;3.50;;;;;;;;;;5033570;28;20024;-59
2023/07/07 07:27:44;;;;;;;8.55;3.13;;;;;;;;;;5033526;28;20106;-59
2023/07/07 07:30:12;;;;;;;7.30;3.25;;;;;;;;;;5033488;28;20021;-59
2023/07/07 07:32:37;;;;;;;6.50;2.92;;;;;;;;;;5033761;28;20029;-59
2023/07/07 07:35:02;;;;;;;6.00;2.72;;;;;;;;;;5033202;28;20370;-58
2023/07/07 07:37:28;;;;;;;7.38;3.15;;;;;;;;;;5033602;28;20025;-58
2023/07/07 07:39:53;;;;;;;9.57;3.00;;;;;;;;;;5018850;28;20101;-59
2023/07/07 07:42:18;;;;;;;8.87;3.03;;;;;;;;;;5013730;28;20030;-59
2023/07/07 07:44:43;;;;;;;5.22;2.63;;;;;;;;;;5013830;28;20594;-58
2023/07/07 07:47:09;;;;;;;6.43;2.60;;;;;;;;;;5013523;28;20112;-58
2023/07/07 07:49:34;;;;;;;6.43;2.50;;;;;;;;;;5013429;28;20018;-59
2023/07/07 07:51:59;;;;;;;5.68;2.50;;;;;;;;;;5013706;28;20029;-59
2023/07/07 07:54:24;;;;;;;10.60;2.90;;;;;;;;;;5013684;28;20018;-58
2023/07/07 07:56:50;;;;;;;5.22;2.50;;;;;;;;;;5013369;28;20394;-59
2023/07/07 07:59:15;;;;;;;4.82;2.50;;;;;;;;;;5013442;28;20089;-58
2023/07/07 08:01:40;;;;;;;6.00;2.22;;;;;;;;;;5013437;28;20442;-58
2023/07/07 08:04:06;;;;;;;5.45;2.38;;;;;;;;;;5014574;28;20406;-59
2023/07/07 08:06:31;;;;;;;6.65;2.20;;;;;;;;;;5033040;28;20025;-59
2023/07/07 08:08:56;;;;;;;5.10;1.85;;;;;;;;;;5033536;28;20021;-59
2023/07/07 08:11:40;;;;;;;5.00;1.60;;;;;;;;;;5033007;28;20486;-60
2023/07/07 08:14:06;;;;;;;6.63;2.30;;;;;;;;;;5033269;28;20017;-60
2023/07/07 08:16:31;;;;;;;5.13;1.85;;;;;;;;;;5033226;28;20022;-60
2023/07/07 08:18:57;;;;;;;4.40;1.80;;;;;;;;;;5033210;28;20545;-60
2023/07/07 08:21:22;;;;;;;4.57;1.52;;;;;;;;;;5033150;28;20279;-59
2023/07/07 08:23:47;;;;;;;4.55;1.73;;;;;;;;;;5033088;28;20155;-60
2023/07/07 08:26:12;;;;;;;4.85;1.80;;;;;;;;;;5033151;28;20049;-59
2023/07/07 08:28:38;;;;;;;3.67;1.20;;;;;;;;;;5033080;28;20458;-59
2023/07/07 08:31:03;;;;;;;5.97;1.50;;;;;;;;;;5032864;28;20039;-59
2023/07/07 08:33:28;;;;;;;3.83;1.30;;;;;;;;;;5032706;28;20358;-59
2023/07/07 08:35:53;;;;;;;6.40;1.40;;;;;;;;;;5032365;28;20103;-59
2023/07/07 08:38:18;;;;;;;9.33;1.60;;;;;;;;;;5031126;28;20044;-59
2023/07/07 08:40:51;;;;;;;7.00;1.33;;;;;;;;;;5017167;28;20249;-59
2023/07/07 08:43:17;;;;;;;5.72;1.50;;;;;;;;;;5017024;28;20451;-59
2023/07/07 08:45:46;;;;;;;4.32;1.20;;;;;;;;;;5017068;28;20390;-59
2023/07/07 08:48:17;;;;;;;6.60;1.35;;;;;;;;;;5017050;28;20010;-59
2023/07/07 08:50:50;;;;;;;4.88;1.55;;;;;;;;;;5016950;28;20017;-59
2023/07/07 08:53:19;;;;;;;4.35;1.30;;;;;;;;;;5016963;28;20466;-59
2023/07/07 08:55:58;;;;;;;5.55;1.40;;;;;;;;;;5016579;28;20018;-59
2023/07/07 08:58:29;;;;;;;4.55;1.40;;;;;;;;;;5021280;28;20021;-60
2023/07/07 09:01:12;;;;;;;3.72;1.20;;;;;;;;;;5036554;28;20108;-60
2023/07/07 09:03:50;;;;;;;4.28;1.20;;;;;;;;;;5035962;28;20045;-59
2023/07/07 09:06:15;;;;;;;5.05;1.30;;;;;;;;;;5036116;28;20017;-59
2023/07/07 09:08:46;;;;;;;6.90;1.53;;;;;;;;;;5036385;28;20006;-59
2023/07/07 09:11:17;;;;;;;8.07;1.48;;;;;;;;;;5036280;28;20263;-59
2023/07/07 09:13:43;;;;;;;3.90;1.35;;;;;;;;;;5031378;28;20033;-60
2023/07/07 09:16:31;;;;;;;4.70;1.23;;;;;;;;;;5036264;28;20028;-59
2023/07/07 09:19:09;;;;;;;6.85;1.30;;;;;;;;;;5027791;28;20029;-60
2023/07/07 09:21:45;;;;;;;3.35;1.20;;;;;;;;;;5035763;28;20021;-60
2023/07/07 09:24:18;;;;;;;4.00;1.30;;;;;;;;;;5018890;28;20072;-60
2023/07/07 09:26:46;;;;;;;5.38;1.40;;;;;;;;;;5015952;28;20049;-60
2023/07/07 09:29:15;;;;;;;8.63;1.50;;;;;;;;;;5015909;28;20029;-60
2023/07/07 09:31:42;;;;;;;3.22;1.30;;;;;;;;;;5016275;28;20506;-60
2023/07/07 09:34:09;;;;;;;4.75;1.42;;;;;;;;;;5016137;28;20378;-60
2023/07/07 09:36:42;;;;;;;4.45;1.40;;;;;;;;;;5015698;28;20049;-60
2023/07/07 09:39:20;;;;;;;4.32;1.48;;;;;;;;;;5020883;28;20013;-60
2023/07/07 09:42:01;;;;;;;4.05;1.38;;;;;;;;;;5035458;28;20030;-60
2023/07/07 09:44:45;;;;;;;5.45;1.77;;;;;;;;;;5036052;28;20358;-60
2023/07/07 09:47:13;;;;;;;4.53;1.30;;;;;;;;;;5035671;28;20017;-60
2023/07/07 09:49:48;;;;;;;3.88;1.40;;;;;;;;;;5035191;28;20025;-60
2023/07/07 09:52:13;;;;;;;3.95;1.30;;;;;;;;;;5034718;28;20033;-60
2023/07/07 09:54:38;;;;;;;3.33;1.30;;;;;;;;;;5035265;28;20025;-61
2023/07/07 09:57:08;;;;;;;4.95;1.50;;;;;;;;;;5035222;28;20717;-60
2023/07/07 09:59:41;;;;;;;3.85;1.33;;;;;;;;;;5035464;28;20431;-61
2023/07/07 10:02:15;;;;;;;4.10;1.40;;;;;;;;;;5034854;28;20032;-61
2023/07/07 10:04:42;;;;;;;4.03;1.40;;;;;;;;;;5034994;28;20017;-60
2023/07/07 10:07:10;;;;;;;5.53;1.75;;;;;;;;;;5035333;28;20017;-61
2023/07/07 10:09:35;;;;;;;4.15;1.50;;;;;;;;;;5035276;28;20501;-61
2023/07/07 10:12:00;;;;;;;5.32;1.38;;;;;;;;;;5026408;28;20096;-60
2023/07/07 10:14:27;;;;;;;3.90;1.50;;;;;;;;;;5024579;28;20025;-61
2023/07/07 10:16:52;;;;;;;3.45;1.38;;;;;;;;;;5035201;28;20060;-61
2023/07/07 10:19:19;;;;;;;2.70;1.15;;;;;;;;;;5034828;28;20025;-62
2023/07/07 10:21:44;;;;;;;3.40;1.30;;;;;;;;;;5034978;28;20389;-61
2023/07/07 10:24:10;;;;;;;5.55;1.52;;;;;;;;;;5034818;28;20018;-61
2023/07/07 10:26:37;;;;;;;2.33;1.08;;;;;;;;;;5034917;28;20025;-61
2023/07/07 10:29:03;;;;;;;3.50;1.30;;;;;;;;;;5034622;28;20018;-61
2023/07/07 10:31:29;;;;;;;2.85;1.20;;;;;;;;;;5034557;28;20026;-60
2023/07/07 10:33:59;;;;;;;3.23;1.17;;;;;;;;;;5034566;28;20104;-61
2023/07/07 10:36:24;;;;;;;4.65;1.20;;;;;;;;;;5034156;28;20262;-60
2023/07/07 10:38:53;;;;;;;5.17;1.30;;;;;;;;;;5028470;28;20018;-61
2023/07/07 10:41:19;;;;;;;3.05;1.08;;;;;;;;;;5014501;28;20076;-61
2023/07/07 10:43:44;;;;;;;4.55;1.40;;;;;;;;;;5015106;28;20029;-61
2023/07/07 10:46:10;;;;;;;3.60;1.30;;;;;;;;;;5014868;28;20022;-61
2023/07/07 10:48:39;;;;;;;4.47;1.20;;;;;;;;;;5014572;28;20026;-62
2023/07/07 10:51:07;;;;;;;6.45;1.58;;;;;;;;;;5014757;28;20449;-62
2023/07/07 10:53:49;;;;;;;5.15;1.40;;;;;;;;;;5014667;28;20024;-61
2023/07/07 10:56:22;;;;;;;3.63;1.17;;;;;;;;;;5014627;28;20018;-61
2023/07/07 10:58:57;;;;;;;3.05;1.27;;;;;;;;;;5014380;28;20371;-62
2023/07/07 11:01:48;;;;;;;3.42;1.30;;;;;;;;;;5020377;28;20409;-62
2023/07/07 11:04:20;;;;;;;2.30;1.15;;;;;;;;;;5031549;28;20052;-61
2023/07/07 11:06:52;;;;;;;4.32;1.15;;;;;;;;;;5031146;28;20040;-61
2023/07/07 11:09:20;;;;;;;3.83;1.20;;;;;;;;;;5034120;28;20031;-61
2023/07/07 11:12:14;;;;;;;3.40;1.30;;;;;;;;;;5034319;28;20021;-61
2023/07/07 11:14:58;;;;;;;4.03;1.45;;;;;;;;;;4992430;28;20034;-61
2023/07/07 11:17:23;;;;;;;7.00;1.60;;;;;;;;;;4972289;28;20591;-61
2023/07/07 11:20:07;;;;;;;5.63;1.33;;;;;;;;;;4971948;28;20031;-62
2023/07/07 11:22:48;;;;;;;3.17;1.30;;;;;;;;;;4972754;28;20372;-62
2023/07/07 11:25:46;;;;;;;4.75;1.38;;;;;;;;;;4972730;28;20042;-63
2023/07/07 11:28:17;;;;;;;3.35;1.20;;;;;;;;;;4934256;29;20473;-62
2023/07/07 11:30:42;;;;;;;3.38;1.42;;;;;;;;;;4934270;29;20043;-62
2023/07/07 11:33:22;;;;;;;4.45;1.30;;;;;;;;;;4922891;29;20024;-62
2023/07/07 11:35:56;;;;;;;3.22;1.35;;;;;;;;;;4915578;29;20099;-62
2023/07/07 11:38:29;;;;;;;4.03;1.40;;;;;;;;;;4917370;29;20035;-62
2023/07/07 11:41:17;;;;;;;3.95;1.40;;;;;;;;;;4934038;29;20034;-62
2023/07/07 11:43:45;;;;;;;4.07;1.40;;;;;;;;;;4928805;29;20493;-62
2023/07/07 11:46:29;;;;;;;4.97;1.30;;;;;;;;;;4934041;29;20520;-63
2023/07/07 11:49:03;;;;;;;4.05;1.38;;;;;;;;;;4934005;29;20393;-63
2023/07/07 11:51:37;;;;;;;4.38;1.48;;;;;;;;;;4946971;29;20527;-63
2023/07/07 11:54:02;;;;;;;6.28;1.70;;;;;;;;;;4953152;29;20038;-63
2023/07/07 11:56:27;;;;;;;3.37;1.50;;;;;;;;;;4953027;29;20031;-63
2023/07/07 11:58:55;;;;;;;3.42;1.50;;;;;;;;;;4953237;29;20314;-64
2023/07/07 12:01:22;;;;;;;4.00;1.52;;;;;;;;;;4953250;29;20531;-63
2023/07/07 12:03:50;;;;;;;4.22;1.40;;;;;;;;;;4973563;28;20057;-65
2023/07/07 12:06:34;;;;;;;3.70;1.48;;;;;;;;;;5010156;28;20071;-64
2023/07/07 12:09:06;;;;;;;3.25;1.30;;;;;;;;;;4996345;28;20037;-64
2023/07/07 12:11:36;;;;;;;3.28;1.25;;;;;;;;;;4994024;28;20474;-65
2023/07/07 12:14:01;;;;;;;3.80;1.40;;;;;;;;;;4994969;28;20080;-67
2023/07/07 12:16:29;;;;;;;4.60;1.40;;;;;;;;;;4997948;28;20449;-67
2023/07/07 12:19:12;;;;;;;3.42;1.40;;;;;;;;;;5000652;28;20261;-68
2023/07/07 12:21:38;;;;;;;3.28;1.30;;;;;;;;;;4997657;28;20057;-67
2023/07/07 12:24:20;;;;;;;4.47;1.60;;;;;;;;;;4997906;28;20026;-67
2023/07/07 12:26:58;;;;;;;4.55;1.27;;;;;;;;;;4997904;28;20050;-68
2023/07/07 12:29:24;;;;;;;6.97;1.70;;;;;;;;;;4997851;28;20490;-68
2023/07/07 12:31:49;;;;;;;5.70;1.70;;;;;;;;;;4997475;28;20034;-67
2023/07/07 12:34:36;;;;;;;4.07;1.20;;;;;;;;;;4997546;28;20029;-67
2023/07/07 12:37:02;;;;;;;4.72;1.50;;;;;;;;;;4997658;28;20377;-67
2023/07/07 12:39:27;;;;;;;6.47;1.48;;;;;;;;;;5018216;28;20030;-66
2023/07/07 12:41:53;;;;;;;5.30;1.35;;;;;;;;;;5036870;28;20022;-66
2023/07/07 12:44:18;;;;;;;5.00;1.50;;;;;;;;;;5036924;28;20024;-67
2023/07/07 12:46:44;;;;;;;3.58;1.38;;;;;;;;;;5036814;28;20067;-67
2023/07/07 12:49:21;;;;;;;5.47;1.48;;;;;;;;;;5036593;28;20377;-67
2023/07/07 12:51:52;;;;;;;3.70;1.20;;;;;;;;;;5036603;28;20018;-67
2023/07/07 12:54:31;;;;;;;3.20;1.38;;;;;;;;;;5036413;28;20029;-67
2023/07/07 12:56:58;;;;;;;3.35;1.23;;;;;;;;;;5036672;28;20013;-70
2023/07/07 12:59:37;;;;;;;3.95;1.42;;;;;;;;;;5021856;28;20433;-69
2023/07/07 13:02:16;;;;;;;3.80;1.33;;;;;;;;;;5019585;28;20025;-68
2023/07/07 13:04:46;;;;;;;4.53;1.40;;;;;;;;;;5036650;28;20364;-69
2023/07/07 13:07:18;;;;;;;3.15;1.48;;;;;;;;;;5036244;28;20064;-69
2023/07/07 13:09:50;;;;;;;3.70;1.60;;;;;;;;;;5036952;28;20028;-71
2023/07/07 13:12:54;;;;;;;3.88;1.40;;;;;;;;;;5020768;28;20538;-71
2023/07/07 13:15:24;;;;;;;5.03;1.40;;;;;;;;;;4955747;29;20135;-72
2023/07/07 13:17:50;;;;;;;3.78;1.48;;;;;;;;;;4973427;28;20038;-71
2023/07/07 13:20:16;;;;;;;3.03;1.20;;;;;;;;;;4975161;28;20115;-69
2023/07/07 13:22:45;;;;;;;4.22;1.40;;;;;;;;;;4975021;28;20030;-71
2023/07/07 13:25:18;;;;;;;4.53;1.30;;;;;;;;;;4974960;28;20460;-71
2023/07/07 13:27:43;;;;;;;3.78;1.30;;;;;;;;;;4975075;28;20077;-73
2023/07/07 13:30:20;;;;;;;3.17;1.20;;;;;;;;;;4975022;28;20026;-73
2023/07/07 13:32:45;;;;;;;4.07;1.40;;;;;;;;;;4974776;28;20045;-70
2023/07/07 13:35:11;;;;;;;3.40;1.40;;;;;;;;;;4974507;28;20546;-70
2023/07/07 13:37:37;;;;;;;4.35;1.70;;;;;;;;;;4974719;28;20300;-71
2023/07/07 13:40:03;;;;;;;4.90;1.38;;;;;;;;;;4973590;28;20038;-72
2023/07/07 13:42:29;;;;;;;3.03;1.20;;;;;;;;;;4974736;28;20121;-72
2023/07/07 13:44:56;;;;;;;2.40;1.20;;;;;;;;;;4976307;28;20538;-72
2023/07/07 13:47:21;;;;;;;5.82;1.48;;;;;;;;;;5035550;28;20469;-74
2023/07/07 13:49:47;;;;;;;6.30;1.60;;;;;;;;;;5035685;28;20017;-73
2023/07/07 13:52:19;;;;;;;3.25;1.38;;;;;;;;;;5035483;28;20374;-75
2023/07/07 13:54:47;;;;;;;4.90;1.30;;;;;;;;;;5029088;28;20018;-74
2023/07/07 13:57:12;;;;;;;4.78;1.40;;;;;;;;;;5028894;28;20025;-74
2023/07/07 13:59:38;;;;;;;3.58;1.25;;;;;;;;;;5024839;28;20416;-75
2023/07/07 14:02:12;;;;;;;2.42;1.10;;;;;;;;;;5026993;28;20484;-75
2023/07/07 14:04:40;;;;;;;4.45;1.30;;;;;;;;;;5032654;28;20108;-76
2023/07/07 14:07:13;;;;;;;2.50;1.15;;;;;;;;;;5033304;28;20564;-76
2023/07/07 14:09:41;;;;;;;4.60;1.35;;;;;;;;;;5037170;28;20017;-75
2023/07/07 14:12:11;;;;;;;2.30;0.98;;;;;;;;;;5034517;28;20032;-74
2023/07/07 14:14:37;;;;;;;3.35;1.38;;;;;;;;;;5045564;28;20021;-75
2023/07/07 14:17:05;;;;;;;3.72;1.30;;;;;;;;;;5029075;28;20416;-76
2023/07/07 14:19:38;;;;;;;2.92;1.20;;;;;;;;;;5026083;28;20029;-76
2023/07/07 14:22:04;;;;;;;4.70;1.23;;;;;;;;;;5026471;28;20052;-76
2023/07/07 14:24:30;;;;;;;2.67;1.10;;;;;;;;;;5040888;28;20505;-75
2023/07/07 14:26:56;;;;;;;7.00;1.25;;;;;;;;;;5039188;28;20116;-75
2023/07/07 14:29:26;;;;;;;4.00;1.30;;;;;;;;;;5027082;28;20022;-76
2023/07/07 14:31:52;;;;;;;3.22;1.23;;;;;;;;;;5033197;28;21126;-75
2023/07/07 14:34:19;;;;;;;3.92;1.30;;;;;;;;;;5036401;28;20104;-76
2023/07/07 14:36:47;;;;;;;3.35;1.30;;;;;;;;;;5028324;28;20041;-74
2023/07/07 14:39:22;;;;;;;3.92;1.58;;;;;;;;;;5022148;28;20104;-73